--}}

METAR

METAR kod formu, aeronatik amaçlar için belirlenen rutin hava raporudur. METAR bilgileri, uçuş öncesinde veya uçuş esnasında dikkate alınıp değerlendirilebilen milli ve milletlerarası rasat veritabanını besler. Pilot böylece kalkış, varış ve yedek havaalanlarındaki meteorolojik şartlardan haberdar olur.

METAR kod formu, aeronatik amaçlar için belirlenen rutin hava raporudur. METAR bilgileri, uçuş öncesinde veya uçuş esnasında dikkate alınıp değerlendirilebilen milli ve milletlerarası rasat veritabanını besler.Pilot böylece kalkış, varış ve yedek havaalanlarındaki meteorolojik şartlardan haberdar olur.

METAR, havacılık amaçlı rutin hava raporunun kod ismidir. METAR kod ismi, ayrı ayrı hazırlanan her raporun başlangıcında bulunur ve bunu takiben gözlemi yapan istasyonun indikatörü ve gözlem zamanı belirtilir.

Örnek: LTAZ 010850Z VRB02KT 9999 FEW040 27/12 Q1019


İlgili konuları ara


Görüşler

Bu konuda henüz görüş yazılmamış.
Gürüş/yorum alanı gerekli.
Markdown kodları kullanılabilir.